createdAt,value
2019-04-20T00:00:09.523Z,10.33
2019-04-20T00:02:35.904Z,10.20
2019-04-20T00:05:05.230Z,9.53
2019-04-20T00:07:35.695Z,8.93
2019-04-20T00:10:08.684Z,8.23
2019-04-20T00:12:47.290Z,9.03
2019-04-20T00:15:01.076Z,8.13
2019-04-20T00:17:28.824Z,8.63
2019-04-20T00:19:57.869Z,8.00
2019-04-20T00:22:46.051Z,7.67
2019-04-20T00:25:41.706Z,7.60
2019-04-20T00:28:24.022Z,7.40
2019-04-20T00:30:53.355Z,7.80
2019-04-20T00:33:22.969Z,7.83
2019-04-20T00:35:34.157Z,7.87
2019-04-20T00:38:01.728Z,7.23
2019-04-20T00:40:30.572Z,7.50
2019-04-20T00:42:59.870Z,7.83
2019-04-20T00:45:30.552Z,7.87
2019-04-20T00:48:03.283Z,7.33
2019-04-20T00:50:43.286Z,7.93
2019-04-20T00:53:08.114Z,7.63
2019-04-20T00:55:25.271Z,7.27
2019-04-20T00:57:59.721Z,7.23
2019-04-20T01:00:37.148Z,7.77
2019-04-20T01:03:09.811Z,7.47
2019-04-20T01:05:54.039Z,7.23
2019-04-20T01:08:21.241Z,7.90
2019-04-20T01:10:52.532Z,7.80
2019-04-20T01:13:22.882Z,8.00
2019-04-20T01:15:55.369Z,8.27
2019-04-20T01:18:17.085Z,8.90
2019-04-20T01:20:45.244Z,8.10
2019-04-20T01:23:17.309Z,9.07
2019-04-20T01:25:45.444Z,8.43
2019-04-20T01:28:29.906Z,8.63
2019-04-20T01:30:50.567Z,8.63
2019-04-20T01:33:26.046Z,8.33
2019-04-20T01:35:56.659Z,9.07
2019-04-20T01:38:26.747Z,9.10
2019-04-20T01:40:40.228Z,8.37
2019-04-20T01:43:08.060Z,8.30
2019-04-20T01:45:39.171Z,8.60
2019-04-20T01:48:06.469Z,8.60
2019-04-20T01:50:37.956Z,8.80
2019-04-20T01:53:12.493Z,8.93
2019-04-20T01:56:01.147Z,8.87
2019-04-20T01:58:37.760Z,8.77
2019-04-20T02:01:00.738Z,8.97
2019-04-20T02:03:55.069Z,8.10
2019-04-20T02:06:23.175Z,8.77
2019-04-20T02:08:58.329Z,8.93
2019-04-20T02:11:27.501Z,9.23
2019-04-20T02:13:56.578Z,8.57
2019-04-20T02:16:28.884Z,8.60
2019-04-20T02:19:06.553Z,8.93
2019-04-20T02:21:34.198Z,8.90
2019-04-20T02:23:54.653Z,8.97
2019-04-20T02:26:17.889Z,9.00
2019-04-20T02:29:15.355Z,8.73
2019-04-20T02:31:59.464Z,9.40
2019-04-20T02:34:40.158Z,9.30
2019-04-20T02:37:21.366Z,8.40
2019-04-20T02:39:54.296Z,9.07
2019-04-20T02:42:14.362Z,8.57
2019-04-20T02:44:41.952Z,8.50
2019-04-20T02:47:16.437Z,8.73
2019-04-20T02:49:40.435Z,8.80
2019-04-20T02:52:09.831Z,8.93
2019-04-20T02:57:05.695Z,8.97
2019-04-20T02:59:53.348Z,9.00
2019-04-20T03:01:51.934Z,8.27
2019-04-20T03:04:04.643Z,9.77
2019-04-20T03:06:46.687Z,9.47
2019-04-20T03:09:22.482Z,9.30
2019-04-20T03:11:59.638Z,10.10
2019-04-20T03:14:17.666Z,9.57
2019-04-20T03:16:47.963Z,9.43
2019-04-20T03:19:14.121Z,9.47
2019-04-20T03:21:52.909Z,10.10
2019-04-20T03:24:20.434Z,9.23
2019-04-20T03:27:15.827Z,10.20
2019-04-20T03:30:28.824Z,9.23
2019-04-20T03:35:23.871Z,9.53
2019-04-20T03:37:48.708Z,9.90
2019-04-20T03:40:10.296Z,10.30
2019-04-20T03:42:26.694Z,10.53
2019-04-20T03:45:00.496Z,9.63
2019-04-20T03:47:37.046Z,10.00
2019-04-20T03:50:18.593Z,10.47
2019-04-20T03:53:09.472Z,10.50
2019-04-20T03:55:47.530Z,10.30
2019-04-20T03:58:24.149Z,10.00
2019-04-20T04:00:59.824Z,10.27
2019-04-20T04:03:47.524Z,9.53
2019-04-20T04:06:05.232Z,10.07
2019-04-20T04:08:30.940Z,10.43
2019-04-20T04:11:12.333Z,10.53
2019-04-20T04:13:23.070Z,10.33
2019-04-20T04:15:57.484Z,11.40
2019-04-20T04:18:28.066Z,9.83
2019-04-20T04:20:57.290Z,10.83
2019-04-20T04:23:37.273Z,10.93
2019-04-20T04:26:12.936Z,11.10
2019-04-20T04:28:37.121Z,10.90
2019-04-20T04:31:08.171Z,10.97
2019-04-20T04:33:52.736Z,10.77
2019-04-20T04:36:00.634Z,11.37
2019-04-20T04:38:39.601Z,10.47
2019-04-20T04:43:32.190Z,10.53
2019-04-20T04:45:44.804Z,10.90
2019-04-20T04:48:18.309Z,11.07
2019-04-20T04:50:49.603Z,11.10
2019-04-20T04:53:25.064Z,11.63
2019-04-20T04:55:50.778Z,11.30
2019-04-20T04:58:12.387Z,11.23
2019-04-20T05:00:40.833Z,11.37
2019-04-20T05:03:28.466Z,11.23
2019-04-20T05:06:22.003Z,10.60
2019-04-20T05:08:39.611Z,11.03
2019-04-20T05:11:02.764Z,10.80
2019-04-20T05:13:37.094Z,11.17
2019-04-20T05:16:14.704Z,10.73
2019-04-20T05:18:57.973Z,11.30
2019-04-20T05:21:25.336Z,11.37
2019-04-20T05:24:06.260Z,11.23
2019-04-20T05:26:56.881Z,11.77
2019-04-20T05:29:10.747Z,11.20
2019-04-20T05:31:42.400Z,11.20
2019-04-20T05:34:25.708Z,10.83
2019-04-20T05:36:49.323Z,10.67
2019-04-20T05:41:48.610Z,10.97
2019-04-20T05:44:25.536Z,10.83
2019-04-20T05:47:02.553Z,11.03
2019-04-20T05:49:31.665Z,10.50
2019-04-20T05:52:09.632Z,10.47
2019-04-20T05:54:33.630Z,10.93
2019-04-20T05:57:07.705Z,9.83
2019-04-20T05:59:26.125Z,10.30
2019-04-20T06:04:43.849Z,10.83
2019-04-20T06:07:02.441Z,10.67
2019-04-20T06:09:28.657Z,10.70
2019-04-20T06:12:07.615Z,10.40
2019-04-20T06:14:41.087Z,10.00
2019-04-20T06:17:23.943Z,10.50
2019-04-20T06:19:46.668Z,10.17
2019-04-20T06:23:01.360Z,10.83
2019-04-20T06:25:39.558Z,10.20
2019-04-20T06:27:46.072Z,10.90
2019-04-20T06:30:11.195Z,10.67
2019-04-20T06:33:10.142Z,10.17
2019-04-20T06:35:54.653Z,9.90
2019-04-20T06:38:10.580Z,11.20
2019-04-20T06:40:52.649Z,9.80
2019-04-20T06:43:05.084Z,10.57
2019-04-20T06:45:36.359Z,10.53
2019-04-20T06:47:57.580Z,10.53
2019-04-20T06:50:30.407Z,10.60
2019-04-20T06:53:31.049Z,10.33
2019-04-20T06:55:57.725Z,10.37
2019-04-20T06:58:33.422Z,9.97
2019-04-20T07:00:55.372Z,10.10
2019-04-20T07:03:30.581Z,17.27
2019-04-20T07:05:47.695Z,14.10
2019-04-20T07:08:36.033Z,10.90
2019-04-20T07:10:52.758Z,9.77
2019-04-20T07:13:07.487Z,10.80
2019-04-20T07:15:48.930Z,10.80
2019-04-20T07:18:23.027Z,10.33
2019-04-20T07:21:43.920Z,10.40
2019-04-20T07:24:03.690Z,11.35
2019-04-20T07:26:31.905Z,10.63
2019-04-20T07:29:05.353Z,9.97
2019-04-20T07:31:24.684Z,9.70
2019-04-20T07:33:56.893Z,10.13
2019-04-20T07:36:28.993Z,9.50
2019-04-20T07:38:53.894Z,9.43
2019-04-20T07:41:39.782Z,9.77
2019-04-20T07:44:07.295Z,9.27
2019-04-20T07:46:34.800Z,11.37
2019-04-20T07:48:50.392Z,10.27
2019-04-20T07:51:10.306Z,10.00
2019-04-20T07:53:40.295Z,10.73
2019-04-20T07:56:23.626Z,11.20
2019-04-20T07:58:38.076Z,9.43
2019-04-20T08:01:31.659Z,10.67
2019-04-20T08:04:11.489Z,10.63
2019-04-20T08:06:27.327Z,9.97
2019-04-20T08:09:02.479Z,10.13
2019-04-20T08:11:47.317Z,9.70
2019-04-20T08:14:12.901Z,10.23
2019-04-20T08:16:41.132Z,11.00
2019-04-20T08:19:05.202Z,10.57
2019-04-20T08:21:38.798Z,10.37
2019-04-20T08:24:08.853Z,10.65
2019-04-20T08:26:23.525Z,10.10
2019-04-20T08:29:02.322Z,11.17
2019-04-20T08:32:17.916Z,11.37
2019-04-20T08:34:50.430Z,11.45
2019-04-20T08:37:15.889Z,10.32
2019-04-20T08:39:53.905Z,10.23
2019-04-20T08:42:16.463Z,10.70
2019-04-20T08:47:27.658Z,10.53
2019-04-20T08:50:09.453Z,11.90
2019-04-20T08:52:55.541Z,11.45
2019-04-20T08:55:04.712Z,11.28
2019-04-20T08:57:13.474Z,11.18
2019-04-20T08:59:44.294Z,11.12
2019-04-20T09:02:14.228Z,11.83
2019-04-20T09:04:50.753Z,10.60
2019-04-20T09:07:18.270Z,11.78
2019-04-20T09:10:00.790Z,11.53
2019-04-20T09:12:30.519Z,11.70
2019-04-20T09:14:40.252Z,11.53
2019-04-20T09:17:36.925Z,11.45
2019-04-20T09:20:04.720Z,11.68
2019-04-20T09:22:40.625Z,11.48
2019-04-20T09:25:35.259Z,11.33
2019-04-20T09:27:39.514Z,11.88
2019-04-20T09:30:09.423Z,11.75
2019-04-20T09:33:08.047Z,12.13
2019-04-20T09:35:34.099Z,12.18
2019-04-20T09:38:00.231Z,12.43
2019-04-20T09:40:34.976Z,12.58
2019-04-20T09:43:04.577Z,12.20
2019-04-20T09:45:47.362Z,13.38
2019-04-20T09:48:16.707Z,11.83
2019-04-20T09:51:00.874Z,12.85
2019-04-20T09:53:24.872Z,12.68
2019-04-20T09:55:57.741Z,12.53
2019-04-20T09:58:21.288Z,12.55
2019-04-20T10:00:54.115Z,12.23
2019-04-20T10:03:10.879Z,12.95
2019-04-20T10:05:39.125Z,12.75
2019-04-20T10:08:09.885Z,13.30
2019-04-20T10:10:41.947Z,13.22
2019-04-20T10:13:07.251Z,14.00
2019-04-20T10:15:35.372Z,13.10
2019-04-20T10:18:03.708Z,13.22
2019-04-20T10:20:34.531Z,12.90
2019-04-20T10:23:00.858Z,12.45
2019-04-20T10:25:30.763Z,12.95
2019-04-20T10:27:58.636Z,12.53
2019-04-20T10:30:26.385Z,12.25
2019-04-20T10:32:55.652Z,12.03
2019-04-20T10:35:23.478Z,12.45
2019-04-20T10:37:55.710Z,11.18
2019-04-20T10:40:40.564Z,11.80
2019-04-20T10:42:53.157Z,11.97
2019-04-20T10:45:21.332Z,11.95
2019-04-20T10:47:49.186Z,13.00
2019-04-20T10:50:16.970Z,12.20
2019-04-20T10:52:45.793Z,10.13
2019-04-20T10:55:14.678Z,11.12
2019-04-20T10:57:43.810Z,12.37
2019-04-20T11:00:13.531Z,11.40
2019-04-20T11:02:44.207Z,11.65
2019-04-20T11:05:11.055Z,10.70
2019-04-20T11:07:38.830Z,11.03
2019-04-20T11:10:14.668Z,10.25
2019-04-20T11:12:38.018Z,9.08
2019-04-20T11:15:06.166Z,10.30
2019-04-20T11:17:33.733Z,9.43
2019-04-20T11:20:01.485Z,9.30
2019-04-20T11:22:30.286Z,8.95
2019-04-20T11:24:58.589Z,8.38
2019-04-20T11:27:26.267Z,10.80
2019-04-20T11:29:54.119Z,8.40
2019-04-20T11:32:22.195Z,8.13
2019-04-20T11:34:51.173Z,8.90
2019-04-20T11:37:19.348Z,8.80
2019-04-20T11:39:48.560Z,7.83
2019-04-20T11:42:17.393Z,6.97
2019-04-20T11:44:45.127Z,5.95
2019-04-20T11:47:12.742Z,5.85
2019-04-20T11:49:41.636Z,6.62
2019-04-20T11:52:09.799Z,5.95
2019-04-20T11:54:38.198Z,6.03
2019-04-20T11:57:06.975Z,6.42
2019-04-20T11:59:34.962Z,4.80
2019-04-20T12:02:29.096Z,4.55
2019-04-20T12:05:10.150Z,6.37
2019-04-20T12:07:24.934Z,8.28
2019-04-20T12:09:53.484Z,7.40
2019-04-20T12:12:30.055Z,7.60
2019-04-20T12:14:50.689Z,7.28
2019-04-20T12:17:19.556Z,6.72
2019-04-20T12:19:47.985Z,6.37
2019-04-20T12:22:16.027Z,5.60
2019-04-20T12:24:44.559Z,5.12
2019-04-20T12:27:17.049Z,5.10
2019-04-20T12:29:45.769Z,5.87
2019-04-20T12:32:14.635Z,7.03
2019-04-20T12:34:43.414Z,8.13
2019-04-20T12:37:11.304Z,7.03
2019-04-20T12:39:39.442Z,7.92
2019-04-20T12:42:09.367Z,7.40
2019-04-20T12:44:37.645Z,7.35
2019-04-20T12:47:05.755Z,6.37
2019-04-20T12:49:33.794Z,6.70
2019-04-20T12:52:06.074Z,7.15
2019-04-20T12:54:30.866Z,7.08
2019-04-20T12:56:58.649Z,7.53
2019-04-20T12:59:27.427Z,7.95
2019-04-20T13:01:55.475Z,6.78
2019-04-20T13:04:28.493Z,6.55
2019-04-20T13:06:57.625Z,7.50
2019-04-20T13:09:34.660Z,7.17
2019-04-20T13:12:32.105Z,7.53
2019-04-20T13:15:18.255Z,7.78
2019-04-20T13:17:47.983Z,9.43
2019-04-20T13:20:16.160Z,8.55
2019-04-20T13:22:44.354Z,8.48
2019-04-20T13:25:12.776Z,8.80
2019-04-20T13:27:40.963Z,9.00
2019-04-20T13:30:09.588Z,9.75
2019-04-20T13:32:38.121Z,9.75
2019-04-20T13:35:07.913Z,10.55
2019-04-20T13:37:38.559Z,9.10
2019-04-20T13:40:06.957Z,9.63
2019-04-20T13:42:36.144Z,9.50
2019-04-20T13:45:04.382Z,9.03
2019-04-20T13:47:32.756Z,9.13
2019-04-20T13:50:01.102Z,9.38
2019-04-20T13:52:28.956Z,8.85
2019-04-20T13:54:58.039Z,9.05
2019-04-20T13:57:33.732Z,9.20
2019-04-20T14:00:08.339Z,9.05
2019-04-20T14:02:44.775Z,7.90
2019-04-20T14:05:12.856Z,8.05
2019-04-20T14:07:42.703Z,7.75
2019-04-20T14:10:11.342Z,7.78
2019-04-20T14:12:50.744Z,7.95
2019-04-20T14:15:11.231Z,8.13
2019-04-20T14:17:39.308Z,7.72
2019-04-20T14:20:12.120Z,6.55
2019-04-20T14:22:36.921Z,7.75
2019-04-20T14:25:05.056Z,7.90
2019-04-20T14:27:32.971Z,7.75
2019-04-20T14:32:44.952Z,7.33
2019-04-20T14:35:12.846Z,7.85
2019-04-20T14:37:41.615Z,6.95
2019-04-20T14:40:10.330Z,7.95
2019-04-20T14:42:44.759Z,7.47
2019-04-20T14:45:08.876Z,7.50
2019-04-20T14:47:36.612Z,7.97
2019-04-20T14:50:07.528Z,7.97
2019-04-20T14:52:35.491Z,7.80
2019-04-20T14:55:03.846Z,7.25
2019-04-20T14:57:31.794Z,7.17
2019-04-20T15:00:05.609Z,6.97
2019-04-20T15:02:34.255Z,6.58
2019-04-20T15:05:03.246Z,6.62
2019-04-20T15:07:31.211Z,7.15
2019-04-20T15:09:58.834Z,7.12
2019-04-20T15:12:38.930Z,7.22
2019-04-20T15:14:56.603Z,7.28
2019-04-20T15:17:37.775Z,6.95
2019-04-20T15:20:29.780Z,7.35
2019-04-20T15:22:59.352Z,8.05
2019-04-20T15:25:27.455Z,7.87
2019-04-20T15:27:56.210Z,7.53
2019-04-20T15:30:24.450Z,7.65
2019-04-20T15:32:54.407Z,8.10
2019-04-20T15:35:23.334Z,8.68
2019-04-20T15:37:51.647Z,7.83
2019-04-20T15:40:19.414Z,8.10
2019-04-20T15:42:56.113Z,7.55
2019-04-20T15:45:16.457Z,8.30
2019-04-20T15:47:44.085Z,9.13
2019-04-20T15:50:11.919Z,8.78
2019-04-20T15:52:44.928Z,8.95
2019-04-20T15:55:14.163Z,8.50
2019-04-20T15:57:38.763Z,7.97
2019-04-20T16:00:08.606Z,8.98
2019-04-20T16:02:47.308Z,9.05
2019-04-20T16:05:47.331Z,9.15
2019-04-20T16:08:36.670Z,9.28
2019-04-20T16:11:24.117Z,9.03
2019-04-20T16:13:53.866Z,8.88
2019-04-20T16:16:21.659Z,8.83
2019-04-20T16:18:50.601Z,8.73
2019-04-20T16:21:23.065Z,8.70
2019-04-20T16:23:56.918Z,8.38
2019-04-20T16:26:29.511Z,7.97
2019-04-20T16:28:57.643Z,8.55
2019-04-20T16:31:26.760Z,8.70
2019-04-20T16:33:56.882Z,8.43
2019-04-20T16:36:26.072Z,8.35
2019-04-20T16:38:55.061Z,8.68
2019-04-20T16:41:24.190Z,8.60
2019-04-20T16:43:53.285Z,10.03
2019-04-20T16:46:23.873Z,9.00
2019-04-20T16:48:50.530Z,9.50
2019-04-20T16:51:18.734Z,8.85
2019-04-20T16:53:47.834Z,7.97
2019-04-20T16:56:17.675Z,8.23
2019-04-20T16:58:48.323Z,9.33
2019-04-20T17:01:14.457Z,8.25
2019-04-20T17:03:51.774Z,8.18
2019-04-20T17:06:11.804Z,8.50
2019-04-20T17:08:41.583Z,9.35
2019-04-20T17:11:09.811Z,8.73
2019-04-20T17:13:43.830Z,9.30
2019-04-20T17:16:07.871Z,8.88
2019-04-20T17:18:35.577Z,9.30
2019-04-20T17:21:05.909Z,9.48
2019-04-20T17:23:33.269Z,9.50
2019-04-20T17:26:03.955Z,8.90
2019-04-20T17:28:52.380Z,9.63
2019-04-20T17:31:25.193Z,8.60
2019-04-20T17:34:28.376Z,8.85
2019-04-20T17:36:40.481Z,9.25
2019-04-20T17:39:13.522Z,9.08
2019-04-20T17:41:59.477Z,8.53
2019-04-20T17:44:27.854Z,8.73
2019-04-20T17:46:49.215Z,8.63
2019-04-20T17:49:24.432Z,9.30
2019-04-20T17:51:59.252Z,9.98
2019-04-20T17:54:16.089Z,10.50
2019-04-20T17:56:46.540Z,8.80
2019-04-20T17:59:16.669Z,9.30
2019-04-20T18:02:43.187Z,8.98
2019-04-20T18:05:34.130Z,8.65
2019-04-20T18:08:07.664Z,8.78
2019-04-20T18:10:34.242Z,9.48
2019-04-20T18:12:51.465Z,9.08
2019-04-20T18:15:35.968Z,9.58
2019-04-20T18:18:24.116Z,9.23
2019-04-20T18:20:50.491Z,9.60
2019-04-20T18:23:25.554Z,9.63
2019-04-20T18:26:24.141Z,9.18
2019-04-20T18:28:32.651Z,9.28
2019-04-20T18:31:03.411Z,10.13
2019-04-20T18:33:31.089Z,9.80
2019-04-20T18:35:58.240Z,9.83
2019-04-20T18:38:26.244Z,10.13
2019-04-20T18:41:02.133Z,9.37
2019-04-20T18:43:27.945Z,10.27
2019-04-20T18:46:14.102Z,9.73
2019-04-20T18:48:50.970Z,10.13
2019-04-20T18:50:55.056Z,9.73
2019-04-20T18:53:29.478Z,10.17
2019-04-20T18:55:55.980Z,10.13
2019-04-20T18:58:22.844Z,10.05
2019-04-20T19:00:51.899Z,9.63
2019-04-20T19:03:28.936Z,9.83
2019-04-20T19:05:50.000Z,9.53
2019-04-20T19:08:19.191Z,9.30
2019-04-20T19:10:54.155Z,9.95
2019-04-20T19:13:28.659Z,10.30
2019-04-20T19:16:15.328Z,10.23
2019-04-20T19:18:53.523Z,10.57
2019-04-20T19:21:10.945Z,10.43
2019-04-20T19:23:48.575Z,10.00
2019-04-20T19:26:17.378Z,10.10
2019-04-20T19:28:48.344Z,9.83
2019-04-20T19:31:27.812Z,10.27
2019-04-20T19:34:00.859Z,11.13
2019-04-20T19:36:20.040Z,11.13
2019-04-20T19:38:53.273Z,11.43
2019-04-20T19:41:25.331Z,10.73
2019-04-20T19:43:50.040Z,11.07
2019-04-20T19:46:39.310Z,11.60
2019-04-20T19:48:49.399Z,11.03
2019-04-20T19:51:30.106Z,11.17
2019-04-20T19:54:00.992Z,10.93
2019-04-20T19:56:26.347Z,11.30
2019-04-20T19:58:53.425Z,11.50
2019-04-20T20:01:06.736Z,11.50
2019-04-20T20:03:35.538Z,10.90
2019-04-20T20:06:03.918Z,11.10
2019-04-20T20:08:35.990Z,10.47
2019-04-20T20:11:04.866Z,11.07
2019-04-20T20:13:40.236Z,10.63
2019-04-20T20:16:09.803Z,9.73
2019-04-20T20:18:46.647Z,11.17
2019-04-20T20:21:19.078Z,10.60
2019-04-20T20:23:30.011Z,10.03
2019-04-20T20:25:58.843Z,9.37
2019-04-20T20:28:37.187Z,9.60
2019-04-20T20:31:10.621Z,10.00
2019-04-20T20:33:43.873Z,9.63
2019-04-20T20:36:08.425Z,9.97
2019-04-20T20:38:35.233Z,9.57
2019-04-20T20:41:06.336Z,9.93
2019-04-20T20:43:40.805Z,9.50
2019-04-20T20:46:05.057Z,9.10
2019-04-20T20:48:38.848Z,9.57
2019-04-20T20:51:12.066Z,9.07
2019-04-20T20:53:41.944Z,9.90
2019-04-20T20:56:07.881Z,9.37
2019-04-20T20:58:40.160Z,9.00
2019-04-20T21:01:04.338Z,9.33
2019-04-20T21:03:33.844Z,8.97
2019-04-20T21:05:53.807Z,9.30
2019-04-20T21:08:21.759Z,9.10
2019-04-20T21:10:50.684Z,9.40
2019-04-20T21:13:19.197Z,8.50
2019-04-20T21:15:57.691Z,9.33
2019-04-20T21:18:41.078Z,8.17
2019-04-20T21:21:02.191Z,8.57
2019-04-20T21:23:29.283Z,8.43
2019-04-20T21:26:03.282Z,8.17
2019-04-20T21:28:31.143Z,8.60
2019-04-20T21:31:10.540Z,8.50
2019-04-20T21:33:32.832Z,8.17
2019-04-20T21:35:58.866Z,8.37
2019-04-20T21:38:31.434Z,7.27
2019-04-20T21:41:03.484Z,8.13
2019-04-20T21:43:29.904Z,7.43
2019-04-20T21:45:59.762Z,7.77
2019-04-20T21:48:40.553Z,8.27
2019-04-20T21:51:11.615Z,7.40
2019-04-20T21:53:29.683Z,7.97
2019-04-20T21:55:55.233Z,7.27
2019-04-20T21:58:29.810Z,8.17
2019-04-20T22:01:09.596Z,7.50
2019-04-20T22:03:26.625Z,7.77
2019-04-20T22:06:06.390Z,7.50
2019-04-20T22:08:34.744Z,7.77
2019-04-20T22:11:03.958Z,8.10
2019-04-20T22:13:37.623Z,7.60
2019-04-20T22:16:05.429Z,7.83
2019-04-20T22:18:31.899Z,8.00
2019-04-20T22:21:10.943Z,7.47
2019-04-20T22:23:43.362Z,7.80
2019-04-20T22:26:15.459Z,7.90
2019-04-20T22:28:29.715Z,8.03
2019-04-20T22:30:57.975Z,7.50
2019-04-20T22:33:33.596Z,8.40
2019-04-20T22:36:02.516Z,8.33
2019-04-20T22:38:56.618Z,7.03
2019-04-20T22:41:25.760Z,8.40
2019-04-20T22:43:52.753Z,8.83
2019-04-20T22:46:26.774Z,8.20
2019-04-20T22:48:59.545Z,8.70
2019-04-20T22:51:35.760Z,8.40
2019-04-20T22:54:02.186Z,8.40
2019-04-20T22:56:34.215Z,8.57
2019-04-20T22:58:59.108Z,8.57
2019-04-20T23:01:27.715Z,8.53
2019-04-20T23:03:46.732Z,9.10
2019-04-20T23:06:14.542Z,8.63
2019-04-20T23:08:42.479Z,9.10
2019-04-20T23:11:18.064Z,10.13
2019-04-20T23:13:43.126Z,9.30
2019-04-20T23:16:09.306Z,9.23
2019-04-20T23:18:38.216Z,9.83
2019-04-20T23:21:10.442Z,9.10
2019-04-20T23:23:35.620Z,9.47
2019-04-20T23:26:03.489Z,10.10
2019-04-20T23:28:31.282Z,10.13
2019-04-20T23:31:06.566Z,10.40
2019-04-20T23:33:29.529Z,10.10
2019-04-20T23:35:59.822Z,10.13
2019-04-20T23:38:26.974Z,10.13
2019-04-20T23:40:55.596Z,10.20
2019-04-20T23:43:30.316Z,10.87
2019-04-20T23:46:28.297Z,11.37
2019-04-20T23:49:21.000Z,10.17
2019-04-20T23:52:08.644Z,10.37
2019-04-20T23:54:19.292Z,11.03
2019-04-20T23:56:41.719Z,11.53
2019-04-20T23:59:10.551Z,10.43
